Antilla — PJJI — position and weather

sailwx.info

Track history (hours):
 
Tides and Currents Weather Stations Pressure Air Temp Water Temp Dewpoint Dewpoint Depression Visibility Wind Speed Wind Dir Waves Ship Positions

Antilla

Last reported at 2015-Feb-16 15:13 UTC. Time now 2015-Mar-07 04:28 UTC.
Position N 36°28' E 014°36'.
Warning: this ship's position is 18 days out of date.

Length 105 m; beam 16 m.

Type: Cargo ship. MMSI: 306511000.

Date/timePositionNaut miles runAvg speedWind from/ knotsBaromVisibWave heightAir tempDewpointWater temp
2015-Feb-16 15:13N 36°28' E 014°36'912.9
2015-Feb-16 14:34N 36°30' E 014°26'1312.9
2015-Feb-16 13:34N 36°35' E 014°11'1313.3
2015-Feb-16 12:33N 36°39' E 013°55'  
2015-Feb-13 17:23N 36°02' W 005°14'8 9.2
2015-Feb-13 16:33N 36°05' W 005°23'3 2.9
2015-Feb-13 15:34N 36°02' W 005°22'9 8.9
2015-Feb-13 14:33N 35°54' W 005°19'0 0.3
2015-Feb-13 13:31N 35°54' W 005°18'0 0.0
2015-Feb-13 12:33N 35°54' W 005°18'0 0.0
2015-Feb-13 11:33N 35°54' W 005°18'0 0.0
2015-Feb-13 10:32N 35°54' W 005°18'0 0.0
2015-Feb-13 09:32N 35°54' W 005°18'0 0.0
2015-Feb-13 08:32N 35°54' W 005°18'2 2.4
2015-Feb-13 07:33N 35°56' W 005°19'11412.7
2015-Feb-12 22:33N 36°13' W 007°39'1413.8
2015-Feb-12 21:33N 36°16' W 007°56'15811.9
2015-Feb-12 08:17N 38°20' W 009°60'1013.9
2015-Feb-12 07:33N 38°30' W 010°03'1413.5
2015-Feb-12 06:32N 38°43' W 010°06'1413.2
2015-Feb-12 05:29N 38°57' W 010°06'1413.4
2015-Feb-12 04:25N 39°12' W 010°06'  
Track history (hours):
 
Tides and Currents Weather Stations Pressure Air Temp Water Temp Dewpoint Dewpoint Depression Visibility Wind Speed Wind Dir Waves Ship Positions

Antilla

Last reported at 2015-Feb-16 15:13 UTC. Time now 2015-Mar-07 04:28 UTC.
Position N 36°28' E 014°36'.
Warning: this ship's position is 18 days out of date.

Length 105 m; beam 16 m.

Type: Cargo ship. MMSI: 306511000.

Date/timePositionNaut miles runAvg speedWind from/ knotsBaromVisibWave heightAir tempDewpointWater temp
2015-Feb-16 15:13N 36°28' E 014°36'912.9
2015-Feb-16 14:34N 36°30' E 014°26'1312.9
2015-Feb-16 13:34N 36°35' E 014°11'1313.3
2015-Feb-16 12:33N 36°39' E 013°55'  
2015-Feb-13 17:23N 36°02' W 005°14'8 9.2
2015-Feb-13 16:33N 36°05' W 005°23'3 2.9
2015-Feb-13 15:34N 36°02' W 005°22'9 8.9
2015-Feb-13 14:33N 35°54' W 005°19'0 0.3
2015-Feb-13 13:31N 35°54' W 005°18'0 0.0
2015-Feb-13 12:33N 35°54' W 005°18'0 0.0
2015-Feb-13 11:33N 35°54' W 005°18'0 0.0
2015-Feb-13 10:32N 35°54' W 005°18'0 0.0
2015-Feb-13 09:32N 35°54' W 005°18'0 0.0
2015-Feb-13 08:32N 35°54' W 005°18'2 2.4
2015-Feb-13 07:33N 35°56' W 005°19'11412.7
2015-Feb-12 22:33N 36°13' W 007°39'1413.8
2015-Feb-12 21:33N 36°16' W 007°56'15811.9
2015-Feb-12 08:17N 38°20' W 009°60'1013.9
2015-Feb-12 07:33N 38°30' W 010°03'1413.5
2015-Feb-12 06:32N 38°43' W 010°06'1413.2
2015-Feb-12 05:29N 38°57' W 010°06'1413.4
2015-Feb-12 04:25N 39°12' W 010°06'  

Dump ship's entire track history